sensor_id;sensor_type;location;lat;lon;timestamp;temperature;humidity
39017;DHT22;24784;45.582;5.276;2023-02-22T00:00:39;9.10;99.90
39017;DHT22;24784;45.582;5.276;2023-02-22T00:03:13;9.00;99.90
39017;DHT22;24784;45.582;5.276;2023-02-22T00:05:42;9.00;99.90
39017;DHT22;24784;45.582;5.276;2023-02-22T00:08:15;9.00;99.90
39017;DHT22;24784;45.582;5.276;2023-02-22T00:10:42;9.10;99.90
39017;DHT22;24784;45.582;5.276;2023-02-22T00:13:10;9.00;99.90
39017;DHT22;24784;45.582;5.276;2023-02-22T00:15:38;8.90;99.90
39017;DHT22;24784;45.582;5.276;2023-02-22T00:18:08;8.90;99.90
39017;DHT22;24784;45.582;5.276;2023-02-22T00:20:37;9.00;99.90
39017;DHT22;24784;45.582;5.276;2023-02-22T00:23:04;9.10;99.90
39017;DHT22;24784;45.582;5.276;2023-02-22T00:25:32;9.20;99.90
39017;DHT22;24784;45.582;5.276;2023-02-22T00:27:59;9.20;99.90
39017;DHT22;24784;45.582;5.276;2023-02-22T00:30:28;9.10;99.90
39017;DHT22;24784;45.582;5.276;2023-02-22T00:32:56;9.00;99.90
39017;DHT22;24784;45.582;5.276;2023-02-22T00:35:26;9.10;99.90
39017;DHT22;24784;45.582;5.276;2023-02-22T00:37:55;9.00;99.90
39017;DHT22;24784;45.582;5.276;2023-02-22T00:40:23;9.00;99.90
39017;DHT22;24784;45.582;5.276;2023-02-22T00:42:50;9.00;99.90
39017;DHT22;24784;45.582;5.276;2023-02-22T00:45:18;8.90;99.90
39017;DHT22;24784;45.582;5.276;2023-02-22T00:47:44;8.80;99.90
39017;DHT22;24784;45.582;5.276;2023-02-22T00:50:11;8.70;99.90
39017;DHT22;24784;45.582;5.276;2023-02-22T00:52:37;8.80;99.90
39017;DHT22;24784;45.582;5.276;2023-02-22T00:55:06;8.90;99.90
39017;DHT22;24784;45.582;5.276;2023-02-22T00:57:32;8.90;99.90
39017;DHT22;24784;45.582;5.276;2023-02-22T01:00:04;8.80;99.90
39017;DHT22;24784;45.582;5.276;2023-02-22T01:02:40;8.80;99.90
39017;DHT22;24784;45.582;5.276;2023-02-22T01:05:09;8.70;99.90
39017;DHT22;24784;45.582;5.276;2023-02-22T01:07:37;8.70;99.90
39017;DHT22;24784;45.582;5.276;2023-02-22T01:10:04;8.60;99.90
39017;DHT22;24784;45.582;5.276;2023-02-22T01:12:31;8.60;99.90
39017;DHT22;24784;45.582;5.276;2023-02-22T01:14:56;8.60;99.90
39017;DHT22;24784;45.582;5.276;2023-02-22T01:17:26;8.60;99.90
39017;DHT22;24784;45.582;5.276;2023-02-22T01:19:52;8.50;99.90
39017;DHT22;24784;45.582;5.276;2023-02-22T01:22:19;8.50;99.90
39017;DHT22;24784;45.582;5.276;2023-02-22T01:24:49;8.40;99.90
39017;DHT22;24784;45.582;5.276;2023-02-22T01:27:16;8.40;99.90
39017;DHT22;24784;45.582;5.276;2023-02-22T01:29:42;8.40;99.90
39017;DHT22;24784;45.582;5.276;2023-02-22T01:32:08;8.40;99.90
39017;DHT22;24784;45.582;5.276;2023-02-22T01:34:37;8.30;99.90
39017;DHT22;24784;45.582;5.276;2023-02-22T01:37:03;8.20;99.90
39017;DHT22;24784;45.582;5.276;2023-02-22T01:39:31;8.20;99.90
39017;DHT22;24784;45.582;5.276;2023-02-22T01:41:56;8.10;99.90
39017;DHT22;24784;45.582;5.276;2023-02-22T01:44:30;8.10;99.90
39017;DHT22;24784;45.582;5.276;2023-02-22T01:46:58;8.20;99.90
39017;DHT22;24784;45.582;5.276;2023-02-22T01:49:28;8.20;99.90
39017;DHT22;24784;45.582;5.276;2023-02-22T01:51:57;8.20;99.90
39017;DHT22;24784;45.582;5.276;2023-02-22T01:54:33;8.10;99.90
39017;DHT22;24784;45.582;5.276;2023-02-22T01:57:25;8.00;99.90
39017;DHT22;24784;45.582;5.276;2023-02-22T02:00:03;8.20;99.90
39017;DHT22;24784;45.582;5.276;2023-02-22T02:02:35;8.10;99.90
39017;DHT22;24784;45.582;5.276;2023-02-22T02:05:01;8.00;99.90
39017;DHT22;24784;45.582;5.276;2023-02-22T02:07:33;7.90;99.90
39017;DHT22;24784;45.582;5.276;2023-02-22T02:10:05;7.80;99.90
39017;DHT22;24784;45.582;5.276;2023-02-22T02:12:42;7.70;99.90
39017;DHT22;24784;45.582;5.276;2023-02-22T02:15:29;7.70;99.90
39017;DHT22;24784;45.582;5.276;2023-02-22T02:18:05;7.70;99.90
39017;DHT22;24784;45.582;5.276;2023-02-22T02:40:38;7.30;99.90
39017;DHT22;24784;45.582;5.276;2023-02-22T02:43:31;7.10;99.90
39017;DHT22;24784;45.582;5.276;2023-02-22T02:46:05;7.20;99.90
39017;DHT22;24784;45.582;5.276;2023-02-22T02:48:34;7.10;99.90
39017;DHT22;24784;45.582;5.276;2023-02-22T02:51:01;7.20;99.90
39017;DHT22;24784;45.582;5.276;2023-02-22T02:53:34;7.10;99.90
39017;DHT22;24784;45.582;5.276;2023-02-22T02:56:01;7.00;99.90
39017;DHT22;24784;45.582;5.276;2023-02-22T02:58:28;7.00;99.90
39017;DHT22;24784;45.582;5.276;2023-02-22T03:00:56;7.10;99.90
39017;DHT22;24784;45.582;5.276;2023-02-22T03:03:31;7.00;99.90
39017;DHT22;24784;45.582;5.276;2023-02-22T03:14:58;6.90;99.90
39017;DHT22;24784;45.582;5.276;2023-02-22T03:17:51;6.80;99.90
39017;DHT22;24784;45.582;5.276;2023-02-22T03:20:34;6.80;99.90
39017;DHT22;24784;45.582;5.276;2023-02-22T03:23:14;6.70;99.90
39017;DHT22;24784;45.582;5.276;2023-02-22T03:25:49;6.70;99.90
39017;DHT22;24784;45.582;5.276;2023-02-22T03:28:17;6.60;99.90
39017;DHT22;24784;45.582;5.276;2023-02-22T03:30:48;6.60;99.90
39017;DHT22;24784;45.582;5.276;2023-02-22T03:36:17;6.60;99.90
39017;DHT22;24784;45.582;5.276;2023-02-22T03:38:44;6.60;99.90
39017;DHT22;24784;45.582;5.276;2023-02-22T03:41:12;6.70;99.90
39017;DHT22;24784;45.582;5.276;2023-02-22T03:43:46;6.70;99.90
39017;DHT22;24784;45.582;5.276;2023-02-22T03:46:14;6.70;99.90
39017;DHT22;24784;45.582;5.276;2023-02-22T03:49:08;6.60;99.90
39017;DHT22;24784;45.582;5.276;2023-02-22T03:51:31;6.60;99.90
39017;DHT22;24784;45.582;5.276;2023-02-22T03:53:57;6.60;99.90
39017;DHT22;24784;45.582;5.276;2023-02-22T03:56:28;6.40;99.90
39017;DHT22;24784;45.582;5.276;2023-02-22T03:59:02;6.50;99.90
39017;DHT22;24784;45.582;5.276;2023-02-22T04:01:29;6.40;99.90
39017;DHT22;24784;45.582;5.276;2023-02-22T04:03:55;6.60;99.90
39017;DHT22;24784;45.582;5.276;2023-02-22T04:06:21;6.40;99.90
39017;DHT22;24784;45.582;5.276;2023-02-22T04:08:46;6.40;99.90
39017;DHT22;24784;45.582;5.276;2023-02-22T04:11:12;6.50;99.90
39017;DHT22;24784;45.582;5.276;2023-02-22T04:13:38;6.50;99.90
39017;DHT22;24784;45.582;5.276;2023-02-22T04:16:04;6.50;99.90
39017;DHT22;24784;45.582;5.276;2023-02-22T04:18:30;6.50;99.90
39017;DHT22;24784;45.582;5.276;2023-02-22T04:20:55;6.60;99.90
39017;DHT22;24784;45.582;5.276;2023-02-22T04:23:21;6.50;99.90
39017;DHT22;24784;45.582;5.276;2023-02-22T04:25:47;6.40;99.90
39017;DHT22;24784;45.582;5.276;2023-02-22T04:28:13;6.40;99.90
39017;DHT22;24784;45.582;5.276;2023-02-22T04:30:38;6.50;99.90
39017;DHT22;24784;45.582;5.276;2023-02-22T04:33:04;6.50;99.90
39017;DHT22;24784;45.582;5.276;2023-02-22T04:35:30;6.40;99.90
39017;DHT22;24784;45.582;5.276;2023-02-22T04:37:55;6.50;99.90
39017;DHT22;24784;45.582;5.276;2023-02-22T04:40:22;6.50;99.90
39017;DHT22;24784;45.582;5.276;2023-02-22T04:42:48;6.40;99.90
39017;DHT22;24784;45.582;5.276;2023-02-22T04:45:14;6.40;99.90
39017;DHT22;24784;45.582;5.276;2023-02-22T04:47:40;6.40;99.90
39017;DHT22;24784;45.582;5.276;2023-02-22T04:50:07;6.40;99.90
39017;DHT22;24784;45.582;5.276;2023-02-22T04:52:33;6.40;99.90
39017;DHT22;24784;45.582;5.276;2023-02-22T04:54:59;6.30;99.90
39017;DHT22;24784;45.582;5.276;2023-02-22T04:57:25;6.30;99.90
39017;DHT22;24784;45.582;5.276;2023-02-22T04:59:51;6.40;99.90
39017;DHT22;24784;45.582;5.276;2023-02-22T05:02:18;6.30;99.90
39017;DHT22;24784;45.582;5.276;2023-02-22T05:04:44;6.30;99.90
39017;DHT22;24784;45.582;5.276;2023-02-22T05:07:09;6.30;99.90
39017;DHT22;24784;45.582;5.276;2023-02-22T05:09:35;6.20;99.90
39017;DHT22;24784;45.582;5.276;2023-02-22T05:12:01;6.20;99.90
39017;DHT22;24784;45.582;5.276;2023-02-22T05:14:27;6.30;99.90
39017;DHT22;24784;45.582;5.276;2023-02-22T05:16:56;6.30;99.90
39017;DHT22;24784;45.582;5.276;2023-02-22T05:19:22;6.30;99.90
39017;DHT22;24784;45.582;5.276;2023-02-22T05:21:48;6.30;99.90
39017;DHT22;24784;45.582;5.276;2023-02-22T05:24:15;6.20;99.90
39017;DHT22;24784;45.582;5.276;2023-02-22T05:26:44;6.20;99.90
39017;DHT22;24784;45.582;5.276;2023-02-22T05:29:11;6.10;99.90
39017;DHT22;24784;45.582;5.276;2023-02-22T05:31:37;6.20;99.90
39017;DHT22;24784;45.582;5.276;2023-02-22T05:34:03;6.20;99.90
39017;DHT22;24784;45.582;5.276;2023-02-22T05:36:29;6.30;99.90
39017;DHT22;24784;45.582;5.276;2023-02-22T05:38:57;6.20;99.90
39017;DHT22;24784;45.582;5.276;2023-02-22T05:41:23;6.20;99.90
39017;DHT22;24784;45.582;5.276;2023-02-22T05:43:49;6.30;99.90
39017;DHT22;24784;45.582;5.276;2023-02-22T05:46:14;6.30;99.90
39017;DHT22;24784;45.582;5.276;2023-02-22T05:48:40;6.30;99.90
39017;DHT22;24784;45.582;5.276;2023-02-22T05:51:06;6.30;99.90
39017;DHT22;24784;45.582;5.276;2023-02-22T05:53:34;6.20;99.90
39017;DHT22;24784;45.582;5.276;2023-02-22T05:56:00;6.10;99.90
39017;DHT22;24784;45.582;5.276;2023-02-22T05:58:26;6.20;99.90
39017;DHT22;24784;45.582;5.276;2023-02-22T06:00:52;6.10;99.90
39017;DHT22;24784;45.582;5.276;2023-02-22T06:03:18;6.10;99.90
39017;DHT22;24784;45.582;5.276;2023-02-22T06:05:44;6.20;99.90
39017;DHT22;24784;45.582;5.276;2023-02-22T06:08:10;6.30;99.90
39017;DHT22;24784;45.582;5.276;2023-02-22T06:10:35;6.30;99.90
39017;DHT22;24784;45.582;5.276;2023-02-22T06:13:02;6.30;99.90
39017;DHT22;24784;45.582;5.276;2023-02-22T06:15:28;6.20;99.90
39017;DHT22;24784;45.582;5.276;2023-02-22T06:17:55;6.20;99.90
39017;DHT22;24784;45.582;5.276;2023-02-22T06:20:22;6.10;99.90
39017;DHT22;24784;45.582;5.276;2023-02-22T06:22:50;6.10;99.90
39017;DHT22;24784;45.582;5.276;2023-02-22T06:25:18;6.10;99.90
39017;DHT22;24784;45.582;5.276;2023-02-22T06:27:44;6.20;99.90
39017;DHT22;24784;45.582;5.276;2023-02-22T06:30:11;6.30;99.90
39017;DHT22;24784;45.582;5.276;2023-02-22T06:32:37;6.30;99.90
39017;DHT22;24784;45.582;5.276;2023-02-22T06:35:03;6.30;99.90
39017;DHT22;24784;45.582;5.276;2023-02-22T06:37:29;6.40;99.90
39017;DHT22;24784;45.582;5.276;2023-02-22T06:39:55;6.40;99.90
39017;DHT22;24784;45.582;5.276;2023-02-22T06:42:21;6.30;99.90
39017;DHT22;24784;45.582;5.276;2023-02-22T06:44:46;6.40;99.90
39017;DHT22;24784;45.582;5.276;2023-02-22T06:47:12;6.30;99.90
39017;DHT22;24784;45.582;5.276;2023-02-22T06:49:38;6.40;99.90
39017;DHT22;24784;45.582;5.276;2023-02-22T06:52:07;6.40;99.90
39017;DHT22;24784;45.582;5.276;2023-02-22T06:54:33;6.50;99.90
39017;DHT22;24784;45.582;5.276;2023-02-22T06:56:59;6.50;99.90
39017;DHT22;24784;45.582;5.276;2023-02-22T06:59:25;6.50;99.90
39017;DHT22;24784;45.582;5.276;2023-02-22T07:01:52;6.50;99.90
39017;DHT22;24784;45.582;5.276;2023-02-22T07:04:18;6.50;99.90
39017;DHT22;24784;45.582;5.276;2023-02-22T07:06:45;6.50;99.90
39017;DHT22;24784;45.582;5.276;2023-02-22T07:09:12;6.60;99.90
39017;DHT22;24784;45.582;5.276;2023-02-22T07:11:38;6.70;99.90
39017;DHT22;24784;45.582;5.276;2023-02-22T07:14:05;6.70;99.90
39017;DHT22;24784;45.582;5.276;2023-02-22T07:16:30;6.80;99.90
39017;DHT22;24784;45.582;5.276;2023-02-22T07:18:56;6.80;99.90
39017;DHT22;24784;45.582;5.276;2023-02-22T07:21:22;6.80;99.90
39017;DHT22;24784;45.582;5.276;2023-02-22T07:23:55;6.80;99.90
39017;DHT22;24784;45.582;5.276;2023-02-22T07:26:22;6.80;99.90
39017;DHT22;24784;45.582;5.276;2023-02-22T07:28:48;6.80;99.90
39017;DHT22;24784;45.582;5.276;2023-02-22T07:31:14;6.80;99.90
39017;DHT22;24784;45.582;5.276;2023-02-22T07:33:40;6.90;99.90
39017;DHT22;24784;45.582;5.276;2023-02-22T07:36:06;6.90;99.90
39017;DHT22;24784;45.582;5.276;2023-02-22T07:38:32;6.90;99.90
39017;DHT22;24784;45.582;5.276;2023-02-22T07:40:58;7.00;99.90
39017;DHT22;24784;45.582;5.276;2023-02-22T07:43:25;7.00;99.90
39017;DHT22;24784;45.582;5.276;2023-02-22T07:45:53;7.10;99.90
39017;DHT22;24784;45.582;5.276;2023-02-22T07:48:22;7.10;99.90
39017;DHT22;24784;45.582;5.276;2023-02-22T07:50:48;7.10;99.90
39017;DHT22;24784;45.582;5.276;2023-02-22T07:55:45;7.20;99.90
39017;DHT22;24784;45.582;5.276;2023-02-22T07:58:13;7.20;99.90
39017;DHT22;24784;45.582;5.276;2023-02-22T08:00:40;7.20;99.90
39017;DHT22;24784;45.582;5.276;2023-02-22T08:03:10;7.30;99.90
39017;DHT22;24784;45.582;5.276;2023-02-22T08:05:38;7.40;99.90
39017;DHT22;24784;45.582;5.276;2023-02-22T08:08:04;7.40;99.90
39017;DHT22;24784;45.582;5.276;2023-02-22T08:10:31;7.50;99.90
39017;DHT22;24784;45.582;5.276;2023-02-22T08:12:57;7.60;99.90
39017;DHT22;24784;45.582;5.276;2023-02-22T08:15:26;7.70;99.90
39017;DHT22;24784;45.582;5.276;2023-02-22T08:17:56;7.70;99.90
39017;DHT22;24784;45.582;5.276;2023-02-22T08:20:22;7.80;99.90
39017;DHT22;24784;45.582;5.276;2023-02-22T08:22:48;7.90;99.90
39017;DHT22;24784;45.582;5.276;2023-02-22T08:25:16;7.90;99.90
39017;DHT22;24784;45.582;5.276;2023-02-22T08:27:42;8.00;99.90
39017;DHT22;24784;45.582;5.276;2023-02-22T08:30:19;8.10;99.90
39017;DHT22;24784;45.582;5.276;2023-02-22T08:32:46;8.20;99.90
39017;DHT22;24784;45.582;5.276;2023-02-22T08:35:13;8.30;99.90
39017;DHT22;24784;45.582;5.276;2023-02-22T08:37:50;8.30;99.90
39017;DHT22;24784;45.582;5.276;2023-02-22T08:40:19;8.40;99.90
39017;DHT22;24784;45.582;5.276;2023-02-22T08:42:45;8.50;99.90
39017;DHT22;24784;45.582;5.276;2023-02-22T08:45:11;8.50;99.90
39017;DHT22;24784;45.582;5.276;2023-02-22T08:47:38;8.50;99.90
39017;DHT22;24784;45.582;5.276;2023-02-22T08:50:05;8.50;99.90
39017;DHT22;24784;45.582;5.276;2023-02-22T08:52:31;8.60;99.90
39017;DHT22;24784;45.582;5.276;2023-02-22T08:54:57;8.70;99.90
39017;DHT22;24784;45.582;5.276;2023-02-22T08:57:23;8.70;99.90
39017;DHT22;24784;45.582;5.276;2023-02-22T08:59:49;8.80;99.90
39017;DHT22;24784;45.582;5.276;2023-02-22T09:02:16;8.80;99.90
39017;DHT22;24784;45.582;5.276;2023-02-22T09:04:42;8.90;99.90
39017;DHT22;24784;45.582;5.276;2023-02-22T09:07:09;9.00;99.90
39017;DHT22;24784;45.582;5.276;2023-02-22T09:09:35;9.10;99.90
39017;DHT22;24784;45.582;5.276;2023-02-22T09:12:01;9.30;99.90
39017;DHT22;24784;45.582;5.276;2023-02-22T09:14:27;9.40;99.90
39017;DHT22;24784;45.582;5.276;2023-02-22T09:16:53;9.60;99.90
39017;DHT22;24784;45.582;5.276;2023-02-22T09:19:18;9.70;99.90
39017;DHT22;24784;45.582;5.276;2023-02-22T09:21:44;9.80;99.90
39017;DHT22;24784;45.582;5.276;2023-02-22T09:24:10;9.80;99.90
39017;DHT22;24784;45.582;5.276;2023-02-22T09:26:37;9.90;99.90
39017;DHT22;24784;45.582;5.276;2023-02-22T09:29:07;10.00;99.90
39017;DHT22;24784;45.582;5.276;2023-02-22T09:31:37;10.10;99.90
39017;DHT22;24784;45.582;5.276;2023-02-22T09:34:04;10.20;99.90
39017;DHT22;24784;45.582;5.276;2023-02-22T09:36:39;10.30;99.90
39017;DHT22;24784;45.582;5.276;2023-02-22T09:39:05;10.30;99.90
39017;DHT22;24784;45.582;5.276;2023-02-22T09:44:35;10.40;99.90
39017;DHT22;24784;45.582;5.276;2023-02-22T09:47:03;10.50;99.90
39017;DHT22;24784;45.582;5.276;2023-02-22T09:50:02;10.60;99.90
39017;DHT22;24784;45.582;5.276;2023-02-22T09:52:31;10.70;99.90
39017;DHT22;24784;45.582;5.276;2023-02-22T09:57:37;11.00;99.90
39017;DHT22;24784;45.582;5.276;2023-02-22T10:00:20;11.00;99.90
39017;DHT22;24784;45.582;5.276;2023-02-22T10:05:40;11.10;99.90
39017;DHT22;24784;45.582;5.276;2023-02-22T10:08:15;11.20;99.90
39017;DHT22;24784;45.582;5.276;2023-02-22T10:10:45;11.20;99.90
39017;DHT22;24784;45.582;5.276;2023-02-22T10:18:51;11.40;99.90
39017;DHT22;24784;45.582;5.276;2023-02-22T10:21:53;11.40;99.90
39017;DHT22;24784;45.582;5.276;2023-02-22T10:24:29;11.60;99.90
39017;DHT22;24784;45.582;5.276;2023-02-22T10:26:57;11.60;99.90
39017;DHT22;24784;45.582;5.276;2023-02-22T10:29:38;11.70;99.90
39017;DHT22;24784;45.582;5.276;2023-02-22T10:32:07;11.70;99.90
39017;DHT22;24784;45.582;5.276;2023-02-22T10:34:47;11.70;99.90
39017;DHT22;24784;45.582;5.276;2023-02-22T10:40:10;11.90;99.90
39017;DHT22;24784;45.582;5.276;2023-02-22T10:42:37;12.00;99.90
39017;DHT22;24784;45.582;5.276;2023-02-22T10:45:03;12.00;99.90
39017;DHT22;24784;45.582;5.276;2023-02-22T10:47:32;12.00;99.90
39017;DHT22;24784;45.582;5.276;2023-02-22T10:50:00;12.00;99.90
39017;DHT22;24784;45.582;5.276;2023-02-22T10:52:31;12.00;99.90
39017;DHT22;24784;45.582;5.276;2023-02-22T10:54:59;12.00;99.90
39017;DHT22;24784;45.582;5.276;2023-02-22T10:57:34;11.90;99.90
39017;DHT22;24784;45.582;5.276;2023-02-22T11:02:56;11.80;99.90
39017;DHT22;24784;45.582;5.276;2023-02-22T11:05:40;11.70;99.90
39017;DHT22;24784;45.582;5.276;2023-02-22T11:08:28;11.70;99.90
39017;DHT22;24784;45.582;5.276;2023-02-22T11:11:00;11.60;99.90
39017;DHT22;24784;45.582;5.276;2023-02-22T11:13:37;11.50;99.90
39017;DHT22;24784;45.582;5.276;2023-02-22T11:19:30;11.50;99.90
39017;DHT22;24784;45.582;5.276;2023-02-22T11:22:09;11.50;99.90
39017;DHT22;24784;45.582;5.276;2023-02-22T11:24:56;11.40;99.90
39017;DHT22;24784;45.582;5.276;2023-02-22T11:27:36;11.40;99.90
39017;DHT22;24784;45.582;5.276;2023-02-22T11:30:26;11.40;99.90
39017;DHT22;24784;45.582;5.276;2023-02-22T11:32:59;11.40;99.90
39017;DHT22;24784;45.582;5.276;2023-02-22T11:38:09;11.30;99.90
39017;DHT22;24784;45.582;5.276;2023-02-22T11:40:35;11.30;99.90
39017;DHT22;24784;45.582;5.276;2023-02-22T11:43:07;11.30;99.90
39017;DHT22;24784;45.582;5.276;2023-02-22T11:45:37;11.30;99.90
39017;DHT22;24784;45.582;5.276;2023-02-22T11:48:06;11.30;99.90
39017;DHT22;24784;45.582;5.276;2023-02-22T11:53:28;11.10;99.90
39017;DHT22;24784;45.582;5.276;2023-02-22T11:56:21;11.20;99.90
39017;DHT22;24784;45.582;5.276;2023-02-22T12:01:57;11.10;99.90
39017;DHT22;24784;45.582;5.276;2023-02-22T12:21:33;11.10;99.90
39017;DHT22;24784;45.582;5.276;2023-02-22T12:24:17;11.10;99.90
39017;DHT22;24784;45.582;5.276;2023-02-22T12:26:59;11.10;99.90
39017;DHT22;24784;45.582;5.276;2023-02-22T12:32:10;11.20;99.90
39017;DHT22;24784;45.582;5.276;2023-02-22T12:37:36;11.20;99.90
39017;DHT22;24784;45.582;5.276;2023-02-22T12:48:51;11.20;99.90
39017;DHT22;24784;45.582;5.276;2023-02-22T12:51:37;11.20;99.90
39017;DHT22;24784;45.582;5.276;2023-02-22T12:57:07;11.10;99.90
39017;DHT22;24784;45.582;5.276;2023-02-22T12:59:51;11.20;99.90
39017;DHT22;24784;45.582;5.276;2023-02-22T13:02:21;11.20;99.90
39017;DHT22;24784;45.582;5.276;2023-02-22T13:04:50;11.10;99.90
39017;DHT22;24784;45.582;5.276;2023-02-22T13:10:34;11.10;99.90
39017;DHT22;24784;45.582;5.276;2023-02-22T13:23:45;11.20;99.90
39017;DHT22;24784;45.582;5.276;2023-02-22T13:26:23;11.20;99.90
39017;DHT22;24784;45.582;5.276;2023-02-22T13:37:22;11.40;99.90
39017;DHT22;24784;45.582;5.276;2023-02-22T13:51:15;11.70;99.90
39017;DHT22;24784;45.582;5.276;2023-02-22T13:53:51;11.70;99.90
39017;DHT22;24784;45.582;5.276;2023-02-22T13:56:24;11.70;99.90
39017;DHT22;24784;45.582;5.276;2023-02-22T14:06:58;11.60;99.90
39017;DHT22;24784;45.582;5.276;2023-02-22T14:09:49;11.60;99.90
39017;DHT22;24784;45.582;5.276;2023-02-22T14:17:40;11.60;99.90
39017;DHT22;24784;45.582;5.276;2023-02-22T14:22:48;11.50;99.90
39017;DHT22;24784;45.582;5.276;2023-02-22T14:25:40;11.60;99.90
39017;DHT22;24784;45.582;5.276;2023-02-22T14:28:34;11.60;99.90
39017;DHT22;24784;45.582;5.276;2023-02-22T14:31:06;11.60;99.90
39017;DHT22;24784;45.582;5.276;2023-02-22T14:36:26;11.70;99.90
39017;DHT22;24784;45.582;5.276;2023-02-22T14:38:53;11.70;99.90
39017;DHT22;24784;45.582;5.276;2023-02-22T14:41:26;11.70;99.90
39017;DHT22;24784;45.582;5.276;2023-02-22T14:43:55;11.70;99.90
39017;DHT22;24784;45.582;5.276;2023-02-22T14:46:26;11.70;99.90
39017;DHT22;24784;45.582;5.276;2023-02-22T14:48:58;11.80;99.90
39017;DHT22;24784;45.582;5.276;2023-02-22T14:51:28;11.80;99.90
39017;DHT22;24784;45.582;5.276;2023-02-22T14:54:14;11.80;99.90
39017;DHT22;24784;45.582;5.276;2023-02-22T14:57:22;11.80;99.90
39017;DHT22;24784;45.582;5.276;2023-02-22T15:00:12;11.90;99.90
39017;DHT22;24784;45.582;5.276;2023-02-22T15:02:49;11.90;99.90
39017;DHT22;24784;45.582;5.276;2023-02-22T15:05:18;11.90;99.90
39017;DHT22;24784;45.582;5.276;2023-02-22T15:07:59;11.90;99.90
39017;DHT22;24784;45.582;5.276;2023-02-22T15:10:29;11.90;99.90
39017;DHT22;24784;45.582;5.276;2023-02-22T15:12:59;11.90;99.90
39017;DHT22;24784;45.582;5.276;2023-02-22T15:15:48;12.00;99.90
39017;DHT22;24784;45.582;5.276;2023-02-22T15:18:38;12.00;99.90
39017;DHT22;24784;45.582;5.276;2023-02-22T15:21:08;12.10;99.90
39017;DHT22;24784;45.582;5.276;2023-02-22T15:24:05;12.10;99.90
39017;DHT22;24784;45.582;5.276;2023-02-22T15:26:41;12.10;99.90
39017;DHT22;24784;45.582;5.276;2023-02-22T15:31:40;12.20;99.90
39017;DHT22;24784;45.582;5.276;2023-02-22T15:36:44;12.20;99.90
39017;DHT22;24784;45.582;5.276;2023-02-22T15:39:29;12.20;99.90
39017;DHT22;24784;45.582;5.276;2023-02-22T15:42:08;12.20;99.90
39017;DHT22;24784;45.582;5.276;2023-02-22T15:44:41;12.20;99.90
39017;DHT22;24784;45.582;5.276;2023-02-22T15:47:18;12.20;99.90
39017;DHT22;24784;45.582;5.276;2023-02-22T15:49:45;12.20;99.90
39017;DHT22;24784;45.582;5.276;2023-02-22T15:52:23;12.00;99.90
39017;DHT22;24784;45.582;5.276;2023-02-22T15:54:50;12.00;99.90
39017;DHT22;24784;45.582;5.276;2023-02-22T15:57:21;11.90;99.90
39017;DHT22;24784;45.582;5.276;2023-02-22T15:59:52;11.80;99.90
39017;DHT22;24784;45.582;5.276;2023-02-22T16:02:33;11.90;99.90
39017;DHT22;24784;45.582;5.276;2023-02-22T16:05:06;11.90;99.90
39017;DHT22;24784;45.582;5.276;2023-02-22T16:07:36;11.80;99.90
39017;DHT22;24784;45.582;5.276;2023-02-22T16:10:03;11.70;99.90
39017;DHT22;24784;45.582;5.276;2023-02-22T16:12:34;11.80;99.90
39017;DHT22;24784;45.582;5.276;2023-02-22T16:15:00;11.70;99.90
39017;DHT22;24784;45.582;5.276;2023-02-22T16:17:37;11.60;99.90
39017;DHT22;24784;45.582;5.276;2023-02-22T16:22:42;11.50;99.90
39017;DHT22;24784;45.582;5.276;2023-02-22T16:27:57;11.40;99.90
39017;DHT22;24784;45.582;5.276;2023-02-22T16:30:35;11.40;99.90
39017;DHT22;24784;45.582;5.276;2023-02-22T16:33:08;11.30;99.90
39017;DHT22;24784;45.582;5.276;2023-02-22T16:35:38;11.30;99.90
39017;DHT22;24784;45.582;5.276;2023-02-22T16:38:06;11.20;99.90
39017;DHT22;24784;45.582;5.276;2023-02-22T16:40:39;11.20;99.90
39017;DHT22;24784;45.582;5.276;2023-02-22T16:43:13;11.20;99.90
39017;DHT22;24784;45.582;5.276;2023-02-22T16:45:39;11.20;99.90
39017;DHT22;24784;45.582;5.276;2023-02-22T16:48:20;11.20;99.90
39017;DHT22;24784;45.582;5.276;2023-02-22T16:50:47;11.20;99.90
39017;DHT22;24784;45.582;5.276;2023-02-22T16:53:14;11.10;99.90
39017;DHT22;24784;45.582;5.276;2023-02-22T16:55:44;11.10;99.90
39017;DHT22;24784;45.582;5.276;2023-02-22T16:58:13;11.00;99.90
39017;DHT22;24784;45.582;5.276;2023-02-22T17:00:39;11.00;99.90
39017;DHT22;24784;45.582;5.276;2023-02-22T17:03:13;11.00;99.90
39017;DHT22;24784;45.582;5.276;2023-02-22T17:05:39;10.90;99.90
39017;DHT22;24784;45.582;5.276;2023-02-22T17:08:05;10.90;99.90
39017;DHT22;24784;45.582;5.276;2023-02-22T17:10:32;10.80;99.90
39017;DHT22;24784;45.582;5.276;2023-02-22T17:12:58;10.70;99.90
39017;DHT22;24784;45.582;5.276;2023-02-22T17:15:31;10.70;99.90
39017;DHT22;24784;45.582;5.276;2023-02-22T17:17:57;10.60;99.90
39017;DHT22;24784;45.582;5.276;2023-02-22T17:20:24;10.60;99.90
39017;DHT22;24784;45.582;5.276;2023-02-22T17:25:30;10.60;99.90
39017;DHT22;24784;45.582;5.276;2023-02-22T17:27:57;10.60;99.90
39017;DHT22;24784;45.582;5.276;2023-02-22T17:30:23;10.80;99.90
39017;DHT22;24784;45.582;5.276;2023-02-22T17:32:49;10.80;99.90
39017;DHT22;24784;45.582;5.276;2023-02-22T17:35:19;10.80;99.90
39017;DHT22;24784;45.582;5.276;2023-02-22T17:37:50;10.80;99.90
39017;DHT22;24784;45.582;5.276;2023-02-22T17:40:16;10.80;99.90
39017;DHT22;24784;45.582;5.276;2023-02-22T17:42:42;10.60;99.90
39017;DHT22;24784;45.582;5.276;2023-02-22T17:45:11;10.50;99.90
39017;DHT22;24784;45.582;5.276;2023-02-22T17:47:40;10.50;99.90
39017;DHT22;24784;45.582;5.276;2023-02-22T17:50:07;10.50;99.90
39017;DHT22;24784;45.582;5.276;2023-02-22T17:52:33;10.50;99.90
39017;DHT22;24784;45.582;5.276;2023-02-22T17:54:59;10.40;99.90
39017;DHT22;24784;45.582;5.276;2023-02-22T17:57:25;10.40;99.90
39017;DHT22;24784;45.582;5.276;2023-02-22T17:59:51;10.40;99.90
39017;DHT22;24784;45.582;5.276;2023-02-22T18:02:16;10.40;99.90
39017;DHT22;24784;45.582;5.276;2023-02-22T18:04:42;10.30;99.90
39017;DHT22;24784;45.582;5.276;2023-02-22T18:07:08;10.30;99.90
39017;DHT22;24784;45.582;5.276;2023-02-22T18:09:33;10.20;99.90
39017;DHT22;24784;45.582;5.276;2023-02-22T18:12:00;10.20;99.90
39017;DHT22;24784;45.582;5.276;2023-02-22T18:14:26;10.10;99.90
39017;DHT22;24784;45.582;5.276;2023-02-22T18:16:54;10.10;99.90
39017;DHT22;24784;45.582;5.276;2023-02-22T18:19:19;10.10;99.90
39017;DHT22;24784;45.582;5.276;2023-02-22T18:21:47;10.10;99.90
39017;DHT22;24784;45.582;5.276;2023-02-22T18:24:12;10.10;99.90
39017;DHT22;24784;45.582;5.276;2023-02-22T18:26:38;10.10;99.90
39017;DHT22;24784;45.582;5.276;2023-02-22T18:29:05;10.00;99.90
39017;DHT22;24784;45.582;5.276;2023-02-22T18:31:31;10.00;99.90
39017;DHT22;24784;45.582;5.276;2023-02-22T18:33:57;10.00;99.90
39017;DHT22;24784;45.582;5.276;2023-02-22T18:36:23;9.90;99.90
39017;DHT22;24784;45.582;5.276;2023-02-22T18:38:51;9.90;99.90
39017;DHT22;24784;45.582;5.276;2023-02-22T18:41:18;9.90;99.90
39017;DHT22;24784;45.582;5.276;2023-02-22T18:43:45;9.90;99.90